Almak — UCEL — position and weather

sailwx.info

Track history (hours):
 
Tides and Currents Weather Stations Pressure Air Temp Water Temp Dewpoint Dewpoint Depression Visibility Wind Speed Wind Dir Waves Ship Positions

Almak

Last reported at 2016-Jan-11 15:34 UTC. Time now 2016-Feb-10 22:07 UTC.
Position N 69°44' E 030°02'.
Warning: this ship's position is 30 days out of date.

Length 41 m; draft 6 m.

Type: Fishing. MMSI: 273317270.

Date/timePositionNaut miles runAvg speedWind from/ knotsBaromVisibWave heightAir tempDewpointWater temp
2016-Jan-11 15:34N 69°44' E 030°02'0 0.0
2016-Jan-11 14:33N 69°44' E 030°02'0 0.0
2016-Jan-11 13:34N 69°44' E 030°02'0 0.0
2016-Jan-11 12:33N 69°44' E 030°02'0 0.0
2016-Jan-11 11:33N 69°44' E 030°02'0 0.0
2016-Jan-11 10:34N 69°44' E 030°02'0 0.0
2016-Jan-11 09:33N 69°44' E 030°02'0 0.0
2016-Jan-11 08:34N 69°44' E 030°02'0 0.0
2016-Jan-11 07:34N 69°44' E 030°02'0 0.0
2016-Jan-11 06:34N 69°44' E 030°02'0 0.0
2016-Jan-11 05:33N 69°44' E 030°02'0 0.0
2016-Jan-11 04:33N 69°44' E 030°02'0 0.0
2016-Jan-11 03:34N 69°44' E 030°02'0 0.0
2016-Jan-11 02:34N 69°44' E 030°02'0 0.0
2016-Jan-11 01:33N 69°44' E 030°02'0 0.0
2016-Jan-11 00:33N 69°44' E 030°02'0 0.0
2016-Jan-10 23:34N 69°44' E 030°02'0 0.0
2016-Jan-10 22:34N 69°44' E 030°02'0 0.0
2016-Jan-10 21:33N 69°44' E 030°02'0 0.0
2016-Jan-10 20:34N 69°44' E 030°02'0 0.0
2016-Jan-10 19:34N 69°44' E 030°02'0 0.0
2016-Jan-10 18:33N 69°44' E 030°02'0 0.0
2016-Jan-10 17:34N 69°44' E 030°02'0 0.0
2016-Jan-10 16:33N 69°44' E 030°02'0 0.0
2016-Jan-10 15:33N 69°44' E 030°02'0 0.0
2016-Jan-10 14:33N 69°44' E 030°02'0 0.0
2016-Jan-10 13:34N 69°44' E 030°02'0 0.0
2016-Jan-10 12:33N 69°44' E 030°02'0 0.0
2016-Jan-10 11:34N 69°44' E 030°02'0 0.0
2016-Jan-10 10:34N 69°44' E 030°02'0 0.0
2016-Jan-10 09:33N 69°44' E 030°02'0 0.0
2016-Jan-10 08:34N 69°44' E 030°02'0 0.0
2016-Jan-10 07:33N 69°44' E 030°02'0 0.0
2016-Jan-10 06:34N 69°44' E 030°02'0 0.0
2016-Jan-10 05:33N 69°44' E 030°02'0 0.0
2016-Jan-10 04:33N 69°44' E 030°02'0 0.0
2016-Jan-10 03:33N 69°44' E 030°02'0 0.0
2016-Jan-10 02:33N 69°44' E 030°02'0 0.0
2016-Jan-10 01:34N 69°44' E 030°02'0 0.0
2016-Jan-10 00:33N 69°44' E 030°02'0 0.0
2016-Jan-09 23:34N 69°44' E 030°02'0 0.0
2016-Jan-09 22:34N 69°44' E 030°02'0 0.0
2016-Jan-09 21:34N 69°44' E 030°02'0 0.0
2016-Jan-09 20:33N 69°44' E 030°02'0 0.0
2016-Jan-09 19:34N 69°44' E 030°02'0 0.0
2016-Jan-09 18:33N 69°44' E 030°02'0 0.0
2016-Jan-09 17:33N 69°44' E 030°02'0 0.0
2016-Jan-09 16:33N 69°44' E 030°02'0 0.0
2016-Jan-09 15:33N 69°44' E 030°02'0 0.0
2016-Jan-09 14:34N 69°44' E 030°02'0 0.0
2016-Jan-09 13:34N 69°44' E 030°02'0 0.0
2016-Jan-09 12:34N 69°44' E 030°02'0 0.0
2016-Jan-09 11:33N 69°44' E 030°02'0 0.2
2016-Jan-09 10:33N 69°44' E 030°01'7 6.6
2016-Jan-09 09:34N 69°50' E 030°07'1110.9
2016-Jan-09 08:33N 69°59' E 030°26'1111.4
2016-Jan-09 07:34N 70°06' E 030°50'244 7.9
2016-Jan-08 00:28N 69°43' E 019°02'2 2.6
2016-Jan-07 23:33N 69°41' E 018°59'0 0.0
2016-Jan-07 22:33N 69°41' E 018°59'0 0.0
2016-Jan-07 21:33N 69°41' E 018°59'0 0.0
2016-Jan-07 20:33N 69°41' E 018°59'0 0.0
2016-Jan-07 19:33N 69°41' E 018°59'0 0.0
2016-Jan-07 18:34N 69°41' E 018°59'1 1.2
2016-Jan-07 17:33N 69°39' E 018°58'0 0.0
2016-Jan-07 16:33N 69°39' E 018°58'0 0.0
2016-Jan-07 15:33N 69°39' E 018°58'0 0.0
2016-Jan-07 14:33N 69°39' E 018°58'0 0.0
2016-Jan-07 13:34N 69°39' E 018°58'0 0.0
2016-Jan-07 12:33N 69°39' E 018°58'0 0.0
2016-Jan-07 11:34N 69°39' E 018°58'0 0.0
2016-Jan-07 10:34N 69°39' E 018°58'0 0.0
2016-Jan-07 09:34N 69°39' E 018°58'0 0.0
2016-Jan-07 08:34N 69°39' E 018°58'0 0.0
2016-Jan-07 07:33N 69°39' E 018°58'0 0.0
2016-Jan-07 06:34N 69°39' E 018°58'0 0.3
2016-Jan-07 05:33N 69°40' E 018°59'  
Track history (hours):
 
Tides and Currents Weather Stations Pressure Air Temp Water Temp Dewpoint Dewpoint Depression Visibility Wind Speed Wind Dir Waves Ship Positions

Almak

Last reported at 2016-Jan-11 15:34 UTC. Time now 2016-Feb-10 22:07 UTC.
Position N 69°44' E 030°02'.
Warning: this ship's position is 30 days out of date.

Length 41 m; draft 6 m.

Type: Fishing. MMSI: 273317270.

Date/timePositionNaut miles runAvg speedWind from/ knotsBaromVisibWave heightAir tempDewpointWater temp
2016-Jan-11 15:34N 69°44' E 030°02'0 0.0
2016-Jan-11 14:33N 69°44' E 030°02'0 0.0
2016-Jan-11 13:34N 69°44' E 030°02'0 0.0
2016-Jan-11 12:33N 69°44' E 030°02'0 0.0
2016-Jan-11 11:33N 69°44' E 030°02'0 0.0
2016-Jan-11 10:34N 69°44' E 030°02'0 0.0
2016-Jan-11 09:33N 69°44' E 030°02'0 0.0
2016-Jan-11 08:34N 69°44' E 030°02'0 0.0
2016-Jan-11 07:34N 69°44' E 030°02'0 0.0
2016-Jan-11 06:34N 69°44' E 030°02'0 0.0
2016-Jan-11 05:33N 69°44' E 030°02'0 0.0
2016-Jan-11 04:33N 69°44' E 030°02'0 0.0
2016-Jan-11 03:34N 69°44' E 030°02'0 0.0
2016-Jan-11 02:34N 69°44' E 030°02'0 0.0
2016-Jan-11 01:33N 69°44' E 030°02'0 0.0
2016-Jan-11 00:33N 69°44' E 030°02'0 0.0
2016-Jan-10 23:34N 69°44' E 030°02'0 0.0
2016-Jan-10 22:34N 69°44' E 030°02'0 0.0
2016-Jan-10 21:33N 69°44' E 030°02'0 0.0
2016-Jan-10 20:34N 69°44' E 030°02'0 0.0
2016-Jan-10 19:34N 69°44' E 030°02'0 0.0
2016-Jan-10 18:33N 69°44' E 030°02'0 0.0
2016-Jan-10 17:34N 69°44' E 030°02'0 0.0
2016-Jan-10 16:33N 69°44' E 030°02'0 0.0
2016-Jan-10 15:33N 69°44' E 030°02'0 0.0
2016-Jan-10 14:33N 69°44' E 030°02'0 0.0
2016-Jan-10 13:34N 69°44' E 030°02'0 0.0
2016-Jan-10 12:33N 69°44' E 030°02'0 0.0
2016-Jan-10 11:34N 69°44' E 030°02'0 0.0
2016-Jan-10 10:34N 69°44' E 030°02'0 0.0
2016-Jan-10 09:33N 69°44' E 030°02'0 0.0
2016-Jan-10 08:34N 69°44' E 030°02'0 0.0
2016-Jan-10 07:33N 69°44' E 030°02'0 0.0
2016-Jan-10 06:34N 69°44' E 030°02'0 0.0
2016-Jan-10 05:33N 69°44' E 030°02'0 0.0
2016-Jan-10 04:33N 69°44' E 030°02'0 0.0
2016-Jan-10 03:33N 69°44' E 030°02'0 0.0
2016-Jan-10 02:33N 69°44' E 030°02'0 0.0
2016-Jan-10 01:34N 69°44' E 030°02'0 0.0
2016-Jan-10 00:33N 69°44' E 030°02'0 0.0
2016-Jan-09 23:34N 69°44' E 030°02'0 0.0
2016-Jan-09 22:34N 69°44' E 030°02'0 0.0
2016-Jan-09 21:34N 69°44' E 030°02'0 0.0
2016-Jan-09 20:33N 69°44' E 030°02'0 0.0
2016-Jan-09 19:34N 69°44' E 030°02'0 0.0
2016-Jan-09 18:33N 69°44' E 030°02'0 0.0
2016-Jan-09 17:33N 69°44' E 030°02'0 0.0
2016-Jan-09 16:33N 69°44' E 030°02'0 0.0
2016-Jan-09 15:33N 69°44' E 030°02'0 0.0
2016-Jan-09 14:34N 69°44' E 030°02'0 0.0
2016-Jan-09 13:34N 69°44' E 030°02'0 0.0
2016-Jan-09 12:34N 69°44' E 030°02'0 0.0
2016-Jan-09 11:33N 69°44' E 030°02'0 0.2
2016-Jan-09 10:33N 69°44' E 030°01'7 6.6
2016-Jan-09 09:34N 69°50' E 030°07'1110.9
2016-Jan-09 08:33N 69°59' E 030°26'1111.4
2016-Jan-09 07:34N 70°06' E 030°50'244 7.9
2016-Jan-08 00:28N 69°43' E 019°02'2 2.6
2016-Jan-07 23:33N 69°41' E 018°59'0 0.0
2016-Jan-07 22:33N 69°41' E 018°59'0 0.0
2016-Jan-07 21:33N 69°41' E 018°59'0 0.0
2016-Jan-07 20:33N 69°41' E 018°59'0 0.0
2016-Jan-07 19:33N 69°41' E 018°59'0 0.0
2016-Jan-07 18:34N 69°41' E 018°59'1 1.2
2016-Jan-07 17:33N 69°39' E 018°58'0 0.0
2016-Jan-07 16:33N 69°39' E 018°58'0 0.0
2016-Jan-07 15:33N 69°39' E 018°58'0 0.0
2016-Jan-07 14:33N 69°39' E 018°58'0 0.0
2016-Jan-07 13:34N 69°39' E 018°58'0 0.0
2016-Jan-07 12:33N 69°39' E 018°58'0 0.0
2016-Jan-07 11:34N 69°39' E 018°58'0 0.0
2016-Jan-07 10:34N 69°39' E 018°58'0 0.0
2016-Jan-07 09:34N 69°39' E 018°58'0 0.0
2016-Jan-07 08:34N 69°39' E 018°58'0 0.0
2016-Jan-07 07:33N 69°39' E 018°58'0 0.0
2016-Jan-07 06:34N 69°39' E 018°58'0 0.3
2016-Jan-07 05:33N 69°40' E 018°59'  

Dump ship's entire track history